sensor_id;sensor_type;location;lat;lon;timestamp;P1;durP1;ratioP1;P2;durP2;ratioP2
5945;SDS011;2998;48.206;16.394;2024-03-08T00:00:16;66.83;;;38.33;;
5945;SDS011;2998;48.206;16.394;2024-03-08T00:02:48;74.00;;;38.10;;
5945;SDS011;2998;48.206;16.394;2024-03-08T00:05:17;68.47;;;36.40;;
5945;SDS011;2998;48.206;16.394;2024-03-08T00:07:46;67.23;;;36.00;;
5945;SDS011;2998;48.206;16.394;2024-03-08T00:10:14;68.57;;;37.60;;
5945;SDS011;2998;48.206;16.394;2024-03-08T00:12:44;72.43;;;39.00;;
5945;SDS011;2998;48.206;16.394;2024-03-08T00:15:13;100.87;;;48.20;;
5945;SDS011;2998;48.206;16.394;2024-03-08T00:17:44;72.13;;;35.83;;
5945;SDS011;2998;48.206;16.394;2024-03-08T00:20:16;58.03;;;33.93;;
5945;SDS011;2998;48.206;16.394;2024-03-08T00:22:46;61.00;;;33.93;;
5945;SDS011;2998;48.206;16.394;2024-03-08T00:25:14;64.93;;;34.00;;
5945;SDS011;2998;48.206;16.394;2024-03-08T00:27:42;67.43;;;35.60;;
5945;SDS011;2998;48.206;16.394;2024-03-08T00:30:11;60.93;;;34.30;;
5945;SDS011;2998;48.206;16.394;2024-03-08T00:32:40;65.53;;;34.47;;
5945;SDS011;2998;48.206;16.394;2024-03-08T00:35:08;59.17;;;34.60;;
5945;SDS011;2998;48.206;16.394;2024-03-08T00:37:39;54.37;;;31.43;;
5945;SDS011;2998;48.206;16.394;2024-03-08T00:40:08;55.10;;;32.47;;
5945;SDS011;2998;48.206;16.394;2024-03-08T00:42:37;55.57;;;30.97;;
5945;SDS011;2998;48.206;16.394;2024-03-08T00:45:06;63.30;;;33.03;;
5945;SDS011;2998;48.206;16.394;2024-03-08T00:47:37;52.13;;;30.83;;
5945;SDS011;2998;48.206;16.394;2024-03-08T00:50:06;54.30;;;31.87;;
5945;SDS011;2998;48.206;16.394;2024-03-08T00:52:35;56.37;;;32.90;;
5945;SDS011;2998;48.206;16.394;2024-03-08T00:55:05;57.03;;;28.97;;
5945;SDS011;2998;48.206;16.394;2024-03-08T00:57:34;61.93;;;35.00;;
5945;SDS011;2998;48.206;16.394;2024-03-08T01:00:03;63.10;;;32.03;;
5945;SDS011;2998;48.206;16.394;2024-03-08T01:02:36;47.67;;;30.00;;
5945;SDS011;2998;48.206;16.394;2024-03-08T01:05:04;53.53;;;29.27;;
5945;SDS011;2998;48.206;16.394;2024-03-08T01:07:33;52.10;;;31.27;;
5945;SDS011;2998;48.206;16.394;2024-03-08T01:10:02;54.93;;;29.57;;
5945;SDS011;2998;48.206;16.394;2024-03-08T01:12:50;59.37;;;32.67;;
5945;SDS011;2998;48.206;16.394;2024-03-08T01:15:18;48.63;;;30.20;;
5945;SDS011;2998;48.206;16.394;2024-03-08T01:17:46;55.37;;;33.30;;
5945;SDS011;2998;48.206;16.394;2024-03-08T01:20:14;54.20;;;31.93;;
5945;SDS011;2998;48.206;16.394;2024-03-08T01:22:42;52.37;;;29.60;;
5945;SDS011;2998;48.206;16.394;2024-03-08T01:25:10;53.67;;;29.70;;
5945;SDS011;2998;48.206;16.394;2024-03-08T01:27:39;58.07;;;30.60;;
5945;SDS011;2998;48.206;16.394;2024-03-08T01:30:08;55.70;;;31.47;;
5945;SDS011;2998;48.206;16.394;2024-03-08T01:32:37;56.00;;;31.20;;
5945;SDS011;2998;48.206;16.394;2024-03-08T01:35:06;59.37;;;31.77;;
5945;SDS011;2998;48.206;16.394;2024-03-08T01:37:36;58.10;;;32.60;;
5945;SDS011;2998;48.206;16.394;2024-03-08T01:40:04;54.30;;;30.37;;
5945;SDS011;2998;48.206;16.394;2024-03-08T01:42:35;57.53;;;30.80;;
5945;SDS011;2998;48.206;16.394;2024-03-08T01:45:04;50.80;;;28.77;;
5945;SDS011;2998;48.206;16.394;2024-03-08T01:47:35;52.23;;;28.50;;
5945;SDS011;2998;48.206;16.394;2024-03-08T01:50:04;48.83;;;29.70;;
5945;SDS011;2998;48.206;16.394;2024-03-08T01:52:33;63.20;;;35.03;;
5945;SDS011;2998;48.206;16.394;2024-03-08T01:55:02;56.63;;;30.07;;
5945;SDS011;2998;48.206;16.394;2024-03-08T01:57:33;53.83;;;30.53;;
5945;SDS011;2998;48.206;16.394;2024-03-08T02:00:02;48.20;;;26.67;;
5945;SDS011;2998;48.206;16.394;2024-03-08T02:02:31;53.87;;;30.67;;
5945;SDS011;2998;48.206;16.394;2024-03-08T02:05:03;49.67;;;29.00;;
5945;SDS011;2998;48.206;16.394;2024-03-08T02:07:31;47.23;;;26.63;;
5945;SDS011;2998;48.206;16.394;2024-03-08T02:09:59;43.77;;;26.37;;
5945;SDS011;2998;48.206;16.394;2024-03-08T02:12:27;44.23;;;27.07;;
5945;SDS011;2998;48.206;16.394;2024-03-08T02:14:55;48.27;;;27.83;;
5945;SDS011;2998;48.206;16.394;2024-03-08T02:17:23;53.93;;;28.97;;
5945;SDS011;2998;48.206;16.394;2024-03-08T02:19:52;44.27;;;27.20;;
5945;SDS011;2998;48.206;16.394;2024-03-08T02:22:25;49.73;;;28.30;;
5945;SDS011;2998;48.206;16.394;2024-03-08T02:24:53;45.37;;;27.33;;
5945;SDS011;2998;48.206;16.394;2024-03-08T02:27:23;47.20;;;27.53;;
5945;SDS011;2998;48.206;16.394;2024-03-08T02:29:51;45.13;;;27.40;;
5945;SDS011;2998;48.206;16.394;2024-03-08T02:32:23;59.37;;;34.40;;
5945;SDS011;2998;48.206;16.394;2024-03-08T02:34:51;48.80;;;26.67;;
5945;SDS011;2998;48.206;16.394;2024-03-08T02:37:28;55.53;;;30.73;;
5945;SDS011;2998;48.206;16.394;2024-03-08T02:39:56;48.43;;;29.20;;
5945;SDS011;2998;48.206;16.394;2024-03-08T02:42:24;50.03;;;30.60;;
5945;SDS011;2998;48.206;16.394;2024-03-08T02:44:52;52.90;;;30.53;;
5945;SDS011;2998;48.206;16.394;2024-03-08T02:47:21;50.10;;;28.03;;
5945;SDS011;2998;48.206;16.394;2024-03-08T02:49:53;51.03;;;29.33;;
5945;SDS011;2998;48.206;16.394;2024-03-08T02:52:21;50.80;;;27.97;;
5945;SDS011;2998;48.206;16.394;2024-03-08T02:54:50;47.90;;;27.70;;
5945;SDS011;2998;48.206;16.394;2024-03-08T02:57:18;57.33;;;31.03;;
5945;SDS011;2998;48.206;16.394;2024-03-08T02:59:46;47.80;;;30.17;;
5945;SDS011;2998;48.206;16.394;2024-03-08T03:02:15;53.27;;;29.90;;
5945;SDS011;2998;48.206;16.394;2024-03-08T03:04:43;54.50;;;29.87;;
5945;SDS011;2998;48.206;16.394;2024-03-08T03:07:11;56.67;;;30.40;;
5945;SDS011;2998;48.206;16.394;2024-03-08T03:09:39;56.00;;;30.93;;
5945;SDS011;2998;48.206;16.394;2024-03-08T03:12:09;53.60;;;31.53;;
5945;SDS011;2998;48.206;16.394;2024-03-08T03:14:37;49.97;;;29.50;;
5945;SDS011;2998;48.206;16.394;2024-03-08T03:17:06;52.00;;;29.10;;
5945;SDS011;2998;48.206;16.394;2024-03-08T03:19:34;56.13;;;29.60;;
5945;SDS011;2998;48.206;16.394;2024-03-08T03:22:02;43.67;;;27.00;;
5945;SDS011;2998;48.206;16.394;2024-03-08T03:24:32;52.37;;;30.20;;
5945;SDS011;2998;48.206;16.394;2024-03-08T03:27:00;53.50;;;29.90;;
5945;SDS011;2998;48.206;16.394;2024-03-08T03:29:38;50.10;;;27.93;;
5945;SDS011;2998;48.206;16.394;2024-03-08T03:32:08;57.40;;;29.53;;
5945;SDS011;2998;48.206;16.394;2024-03-08T03:34:36;54.77;;;29.03;;
5945;SDS011;2998;48.206;16.394;2024-03-08T03:37:05;47.93;;;29.43;;
5945;SDS011;2998;48.206;16.394;2024-03-08T03:39:35;46.87;;;27.80;;
5945;SDS011;2998;48.206;16.394;2024-03-08T03:42:14;50.13;;;29.67;;
5945;SDS011;2998;48.206;16.394;2024-03-08T03:44:45;56.43;;;29.80;;
5945;SDS011;2998;48.206;16.394;2024-03-08T03:47:14;49.60;;;30.00;;
5945;SDS011;2998;48.206;16.394;2024-03-08T03:49:42;49.63;;;28.63;;
5945;SDS011;2998;48.206;16.394;2024-03-08T03:52:11;56.43;;;29.57;;
5945;SDS011;2998;48.206;16.394;2024-03-08T03:54:39;55.73;;;30.90;;
5945;SDS011;2998;48.206;16.394;2024-03-08T03:57:07;57.40;;;31.33;;
5945;SDS011;2998;48.206;16.394;2024-03-08T03:59:35;50.50;;;29.10;;
5945;SDS011;2998;48.206;16.394;2024-03-08T04:02:05;49.17;;;27.90;;
5945;SDS011;2998;48.206;16.394;2024-03-08T04:04:33;52.03;;;29.23;;
5945;SDS011;2998;48.206;16.394;2024-03-08T04:07:01;49.40;;;28.50;;
5945;SDS011;2998;48.206;16.394;2024-03-08T04:09:30;54.90;;;30.37;;
5945;SDS011;2998;48.206;16.394;2024-03-08T04:11:58;51.53;;;29.43;;
5945;SDS011;2998;48.206;16.394;2024-03-08T04:14:27;51.80;;;28.60;;
5945;SDS011;2998;48.206;16.394;2024-03-08T04:16:56;51.10;;;28.00;;
5945;SDS011;2998;48.206;16.394;2024-03-08T04:19:25;53.43;;;28.30;;
5945;SDS011;2998;48.206;16.394;2024-03-08T04:21:54;50.30;;;29.80;;
5945;SDS011;2998;48.206;16.394;2024-03-08T04:24:22;51.43;;;27.73;;
5945;SDS011;2998;48.206;16.394;2024-03-08T04:26:50;49.87;;;29.60;;
5945;SDS011;2998;48.206;16.394;2024-03-08T04:29:19;53.23;;;29.27;;
5945;SDS011;2998;48.206;16.394;2024-03-08T04:31:48;54.87;;;30.23;;
5945;SDS011;2998;48.206;16.394;2024-03-08T04:34:20;52.73;;;29.83;;
5945;SDS011;2998;48.206;16.394;2024-03-08T04:36:49;56.03;;;29.70;;
5945;SDS011;2998;48.206;16.394;2024-03-08T04:39:17;52.97;;;29.20;;
5945;SDS011;2998;48.206;16.394;2024-03-08T04:41:45;55.20;;;31.87;;
5945;SDS011;2998;48.206;16.394;2024-03-08T04:44:14;50.13;;;28.37;;
5945;SDS011;2998;48.206;16.394;2024-03-08T04:46:42;48.77;;;28.20;;
5945;SDS011;2998;48.206;16.394;2024-03-08T04:49:10;55.07;;;30.93;;
5945;SDS011;2998;48.206;16.394;2024-03-08T04:51:39;56.77;;;29.53;;
5945;SDS011;2998;48.206;16.394;2024-03-08T04:54:09;52.53;;;30.97;;
5945;SDS011;2998;48.206;16.394;2024-03-08T04:56:37;53.67;;;30.33;;
5945;SDS011;2998;48.206;16.394;2024-03-08T04:59:05;56.40;;;31.03;;
5945;SDS011;2998;48.206;16.394;2024-03-08T05:01:34;45.33;;;27.87;;
5945;SDS011;2998;48.206;16.394;2024-03-08T05:04:04;50.17;;;29.07;;
5945;SDS011;2998;48.206;16.394;2024-03-08T05:06:35;50.40;;;28.70;;
5945;SDS011;2998;48.206;16.394;2024-03-08T05:09:03;58.83;;;31.17;;
5945;SDS011;2998;48.206;16.394;2024-03-08T05:11:42;56.23;;;28.63;;
5945;SDS011;2998;48.206;16.394;2024-03-08T05:14:11;46.90;;;26.80;;
5945;SDS011;2998;48.206;16.394;2024-03-08T05:16:42;45.40;;;28.13;;
5945;SDS011;2998;48.206;16.394;2024-03-08T05:19:15;48.37;;;28.20;;
5945;SDS011;2998;48.206;16.394;2024-03-08T05:21:44;53.60;;;29.67;;
5945;SDS011;2998;48.206;16.394;2024-03-08T05:24:13;56.80;;;30.67;;
5945;SDS011;2998;48.206;16.394;2024-03-08T05:26:43;43.27;;;27.57;;
5945;SDS011;2998;48.206;16.394;2024-03-08T05:29:12;53.40;;;29.47;;
5945;SDS011;2998;48.206;16.394;2024-03-08T05:31:43;52.87;;;29.07;;
5945;SDS011;2998;48.206;16.394;2024-03-08T05:34:13;54.70;;;32.40;;
5945;SDS011;2998;48.206;16.394;2024-03-08T05:36:41;57.10;;;30.13;;
5945;SDS011;2998;48.206;16.394;2024-03-08T05:39:11;47.67;;;26.97;;
5945;SDS011;2998;48.206;16.394;2024-03-08T05:41:40;46.47;;;28.67;;
5945;SDS011;2998;48.206;16.394;2024-03-08T05:44:09;48.00;;;27.50;;
5945;SDS011;2998;48.206;16.394;2024-03-08T05:46:38;50.97;;;29.07;;
5945;SDS011;2998;48.206;16.394;2024-03-08T05:49:07;47.00;;;28.07;;
5945;SDS011;2998;48.206;16.394;2024-03-08T05:51:37;48.77;;;29.43;;
5945;SDS011;2998;48.206;16.394;2024-03-08T05:54:07;56.20;;;29.20;;
5945;SDS011;2998;48.206;16.394;2024-03-08T05:56:37;57.43;;;30.87;;
5945;SDS011;2998;48.206;16.394;2024-03-08T05:59:05;54.77;;;30.90;;
5945;SDS011;2998;48.206;16.394;2024-03-08T06:01:35;61.93;;;31.67;;
5945;SDS011;2998;48.206;16.394;2024-03-08T06:04:04;61.70;;;30.83;;
5945;SDS011;2998;48.206;16.394;2024-03-08T06:06:33;50.23;;;29.60;;
5945;SDS011;2998;48.206;16.394;2024-03-08T06:09:04;56.33;;;30.40;;
5945;SDS011;2998;48.206;16.394;2024-03-08T06:11:38;52.17;;;29.50;;
5945;SDS011;2998;48.206;16.394;2024-03-08T06:14:06;55.27;;;29.23;;
5945;SDS011;2998;48.206;16.394;2024-03-08T06:16:36;54.70;;;30.40;;
5945;SDS011;2998;48.206;16.394;2024-03-08T06:19:05;53.30;;;31.67;;
5945;SDS011;2998;48.206;16.394;2024-03-08T06:21:34;64.73;;;32.03;;
5945;SDS011;2998;48.206;16.394;2024-03-08T06:24:02;60.83;;;33.43;;
5945;SDS011;2998;48.206;16.394;2024-03-08T06:26:31;53.93;;;30.07;;
5945;SDS011;2998;48.206;16.394;2024-03-08T06:29:02;61.27;;;31.80;;
5945;SDS011;2998;48.206;16.394;2024-03-08T06:31:33;55.30;;;30.03;;
5945;SDS011;2998;48.206;16.394;2024-03-08T06:34:07;54.17;;;28.97;;
5945;SDS011;2998;48.206;16.394;2024-03-08T06:36:36;52.90;;;29.73;;
5945;SDS011;2998;48.206;16.394;2024-03-08T06:39:05;51.30;;;28.50;;
5945;SDS011;2998;48.206;16.394;2024-03-08T06:41:36;55.67;;;30.00;;
5945;SDS011;2998;48.206;16.394;2024-03-08T06:44:05;58.40;;;32.50;;
5945;SDS011;2998;48.206;16.394;2024-03-08T06:46:34;60.73;;;30.93;;
5945;SDS011;2998;48.206;16.394;2024-03-08T06:49:04;56.03;;;30.47;;
5945;SDS011;2998;48.206;16.394;2024-03-08T06:51:39;56.50;;;31.63;;
5945;SDS011;2998;48.206;16.394;2024-03-08T06:54:08;58.53;;;33.20;;
5945;SDS011;2998;48.206;16.394;2024-03-08T06:56:36;53.80;;;31.60;;
5945;SDS011;2998;48.206;16.394;2024-03-08T06:59:05;56.27;;;32.33;;
5945;SDS011;2998;48.206;16.394;2024-03-08T07:01:38;57.33;;;31.70;;
5945;SDS011;2998;48.206;16.394;2024-03-08T07:04:07;54.30;;;31.30;;
5945;SDS011;2998;48.206;16.394;2024-03-08T07:06:35;53.87;;;31.00;;
5945;SDS011;2998;48.206;16.394;2024-03-08T07:09:03;52.37;;;28.27;;
5945;SDS011;2998;48.206;16.394;2024-03-08T07:11:31;50.13;;;27.77;;
5945;SDS011;2998;48.206;16.394;2024-03-08T07:14:01;42.93;;;25.60;;
5945;SDS011;2998;48.206;16.394;2024-03-08T07:16:32;47.30;;;27.20;;
5945;SDS011;2998;48.206;16.394;2024-03-08T07:19:00;43.43;;;26.07;;
5945;SDS011;2998;48.206;16.394;2024-03-08T07:21:30;40.00;;;26.80;;
5945;SDS011;2998;48.206;16.394;2024-03-08T07:23:58;42.67;;;25.47;;
5945;SDS011;2998;48.206;16.394;2024-03-08T07:26:51;45.63;;;26.60;;
5945;SDS011;2998;48.206;16.394;2024-03-08T07:29:20;42.10;;;23.77;;
5945;SDS011;2998;48.206;16.394;2024-03-08T07:31:48;38.30;;;24.00;;
5945;SDS011;2998;48.206;16.394;2024-03-08T07:34:27;49.60;;;26.67;;
5945;SDS011;2998;48.206;16.394;2024-03-08T07:37:00;38.87;;;21.97;;
5945;SDS011;2998;48.206;16.394;2024-03-08T07:39:29;46.40;;;26.87;;
5945;SDS011;2998;48.206;16.394;2024-03-08T07:41:58;47.63;;;25.17;;
5945;SDS011;2998;48.206;16.394;2024-03-08T07:44:27;34.90;;;22.30;;
5945;SDS011;2998;48.206;16.394;2024-03-08T07:46:56;46.30;;;28.30;;
5945;SDS011;2998;48.206;16.394;2024-03-08T07:49:24;43.97;;;25.53;;
5945;SDS011;2998;48.206;16.394;2024-03-08T07:51:52;43.10;;;25.67;;
5945;SDS011;2998;48.206;16.394;2024-03-08T07:54:22;40.43;;;22.70;;
5945;SDS011;2998;48.206;16.394;2024-03-08T07:56:50;33.67;;;22.17;;
5945;SDS011;2998;48.206;16.394;2024-03-08T07:59:19;33.33;;;22.97;;
5945;SDS011;2998;48.206;16.394;2024-03-08T08:01:47;45.47;;;25.90;;
5945;SDS011;2998;48.206;16.394;2024-03-08T08:04:15;32.33;;;21.00;;
5945;SDS011;2998;48.206;16.394;2024-03-08T08:06:45;42.97;;;25.07;;
5945;SDS011;2998;48.206;16.394;2024-03-08T08:09:13;37.70;;;24.07;;
5945;SDS011;2998;48.206;16.394;2024-03-08T08:11:43;32.00;;;20.53;;
5945;SDS011;2998;48.206;16.394;2024-03-08T08:14:11;42.30;;;23.93;;
5945;SDS011;2998;48.206;16.394;2024-03-08T08:16:39;43.80;;;24.33;;
5945;SDS011;2998;48.206;16.394;2024-03-08T08:19:09;46.43;;;25.13;;
5945;SDS011;2998;48.206;16.394;2024-03-08T08:21:41;44.77;;;25.33;;
5945;SDS011;2998;48.206;16.394;2024-03-08T08:24:09;42.37;;;24.93;;
5945;SDS011;2998;48.206;16.394;2024-03-08T08:26:38;46.60;;;26.67;;
5945;SDS011;2998;48.206;16.394;2024-03-08T08:29:08;44.73;;;25.20;;
5945;SDS011;2998;48.206;16.394;2024-03-08T08:31:36;48.10;;;25.97;;
5945;SDS011;2998;48.206;16.394;2024-03-08T08:34:04;43.13;;;25.30;;
5945;SDS011;2998;48.206;16.394;2024-03-08T08:36:33;45.83;;;28.23;;
5945;SDS011;2998;48.206;16.394;2024-03-08T08:39:01;44.40;;;26.77;;
5945;SDS011;2998;48.206;16.394;2024-03-08T08:41:30;46.23;;;28.67;;
5945;SDS011;2998;48.206;16.394;2024-03-08T08:43:58;54.97;;;27.30;;
5945;SDS011;2998;48.206;16.394;2024-03-08T08:46:42;43.90;;;26.00;;
5945;SDS011;2998;48.206;16.394;2024-03-08T08:49:10;45.90;;;25.90;;
5945;SDS011;2998;48.206;16.394;2024-03-08T08:51:41;38.57;;;23.90;;
5945;SDS011;2998;48.206;16.394;2024-03-08T08:54:09;43.37;;;25.73;;
5945;SDS011;2998;48.206;16.394;2024-03-08T08:56:40;40.70;;;24.67;;
5945;SDS011;2998;48.206;16.394;2024-03-08T08:59:08;46.27;;;26.17;;
5945;SDS011;2998;48.206;16.394;2024-03-08T09:01:36;39.77;;;24.37;;
5945;SDS011;2998;48.206;16.394;2024-03-08T09:04:06;40.70;;;24.23;;
5945;SDS011;2998;48.206;16.394;2024-03-08T09:06:34;44.63;;;26.07;;
5945;SDS011;2998;48.206;16.394;2024-03-08T09:09:03;43.60;;;25.93;;
5945;SDS011;2998;48.206;16.394;2024-03-08T09:11:32;41.80;;;25.13;;
5945;SDS011;2998;48.206;16.394;2024-03-08T09:14:01;39.13;;;26.40;;
5945;SDS011;2998;48.206;16.394;2024-03-08T09:16:29;41.57;;;25.07;;
5945;SDS011;2998;48.206;16.394;2024-03-08T09:18:59;39.47;;;23.00;;
5945;SDS011;2998;48.206;16.394;2024-03-08T09:21:29;37.00;;;23.50;;
5945;SDS011;2998;48.206;16.394;2024-03-08T09:23:58;40.40;;;23.83;;
5945;SDS011;2998;48.206;16.394;2024-03-08T09:26:26;40.43;;;24.30;;
5945;SDS011;2998;48.206;16.394;2024-03-08T09:28:55;38.20;;;22.60;;
5945;SDS011;2998;48.206;16.394;2024-03-08T09:31:24;36.97;;;23.70;;
5945;SDS011;2998;48.206;16.394;2024-03-08T09:33:52;40.37;;;24.30;;
5945;SDS011;2998;48.206;16.394;2024-03-08T09:36:20;42.80;;;24.23;;
5945;SDS011;2998;48.206;16.394;2024-03-08T09:38:50;36.10;;;22.63;;
5945;SDS011;2998;48.206;16.394;2024-03-08T09:41:19;38.37;;;22.83;;
5945;SDS011;2998;48.206;16.394;2024-03-08T09:43:47;35.40;;;22.23;;
5945;SDS011;2998;48.206;16.394;2024-03-08T09:46:16;30.20;;;20.57;;
5945;SDS011;2998;48.206;16.394;2024-03-08T09:48:45;29.60;;;18.80;;
5945;SDS011;2998;48.206;16.394;2024-03-08T09:51:14;25.80;;;17.70;;
5945;SDS011;2998;48.206;16.394;2024-03-08T09:53:42;30.23;;;19.43;;
5945;SDS011;2998;48.206;16.394;2024-03-08T09:56:12;28.50;;;20.00;;
5945;SDS011;2998;48.206;16.394;2024-03-08T09:58:40;29.30;;;18.63;;
5945;SDS011;2998;48.206;16.394;2024-03-08T10:01:32;42.97;;;25.30;;
5945;SDS011;2998;48.206;16.394;2024-03-08T10:04:01;29.37;;;19.73;;
5945;SDS011;2998;48.206;16.394;2024-03-08T10:06:30;30.23;;;19.57;;
5945;SDS011;2998;48.206;16.394;2024-03-08T10:08:58;31.87;;;22.50;;
5945;SDS011;2998;48.206;16.394;2024-03-08T10:11:28;40.47;;;23.27;;
5945;SDS011;2998;48.206;16.394;2024-03-08T10:13:56;37.70;;;26.30;;
5945;SDS011;2998;48.206;16.394;2024-03-08T10:16:25;39.13;;;23.70;;
5945;SDS011;2998;48.206;16.394;2024-03-08T10:18:53;36.80;;;21.70;;
5945;SDS011;2998;48.206;16.394;2024-03-08T10:21:22;37.77;;;24.10;;
5945;SDS011;2998;48.206;16.394;2024-03-08T10:23:51;33.93;;;22.37;;
5945;SDS011;2998;48.206;16.394;2024-03-08T10:26:20;31.70;;;20.70;;
5945;SDS011;2998;48.206;16.394;2024-03-08T10:28:50;37.03;;;24.07;;
5945;SDS011;2998;48.206;16.394;2024-03-08T10:31:19;38.20;;;23.87;;
5945;SDS011;2998;48.206;16.394;2024-03-08T10:33:48;40.33;;;24.13;;
5945;SDS011;2998;48.206;16.394;2024-03-08T10:36:17;39.37;;;24.33;;
5945;SDS011;2998;48.206;16.394;2024-03-08T10:38:46;40.13;;;25.57;;
5945;SDS011;2998;48.206;16.394;2024-03-08T10:41:15;45.83;;;24.53;;
5945;SDS011;2998;48.206;16.394;2024-03-08T10:43:52;40.60;;;25.60;;
5945;SDS011;2998;48.206;16.394;2024-03-08T10:46:35;43.03;;;25.37;;
5945;SDS011;2998;48.206;16.394;2024-03-08T10:49:12;35.20;;;23.20;;
5945;SDS011;2998;48.206;16.394;2024-03-08T10:51:45;43.97;;;27.27;;
5945;SDS011;2998;48.206;16.394;2024-03-08T10:54:14;43.00;;;22.13;;
5945;SDS011;2998;48.206;16.394;2024-03-08T10:56:44;36.80;;;23.00;;
5945;SDS011;2998;48.206;16.394;2024-03-08T10:59:13;39.90;;;23.60;;
5945;SDS011;2998;48.206;16.394;2024-03-08T11:01:43;38.70;;;22.57;;
5945;SDS011;2998;48.206;16.394;2024-03-08T11:04:12;35.70;;;23.00;;
5945;SDS011;2998;48.206;16.394;2024-03-08T11:06:43;37.63;;;23.47;;
5945;SDS011;2998;48.206;16.394;2024-03-08T11:09:29;41.03;;;25.30;;
5945;SDS011;2998;48.206;16.394;2024-03-08T11:12:18;42.03;;;24.67;;
5945;SDS011;2998;48.206;16.394;2024-03-08T11:14:53;43.70;;;25.57;;
5945;SDS011;2998;48.206;16.394;2024-03-08T11:17:25;40.10;;;24.23;;
5945;SDS011;2998;48.206;16.394;2024-03-08T11:19:54;36.47;;;22.73;;
5945;SDS011;2998;48.206;16.394;2024-03-08T11:22:29;37.30;;;22.60;;
5945;SDS011;2998;48.206;16.394;2024-03-08T11:25:01;38.33;;;23.37;;
5945;SDS011;2998;48.206;16.394;2024-03-08T11:27:32;39.37;;;23.87;;
5945;SDS011;2998;48.206;16.394;2024-03-08T11:30:02;35.47;;;22.97;;
5945;SDS011;2998;48.206;16.394;2024-03-08T11:32:44;33.63;;;22.50;;
5945;SDS011;2998;48.206;16.394;2024-03-08T11:42:08;39.80;;;21.87;;
5945;SDS011;2998;48.206;16.394;2024-03-08T11:44:39;41.93;;;22.93;;
5945;SDS011;2998;48.206;16.394;2024-03-08T11:47:17;28.50;;;19.63;;
5945;SDS011;2998;48.206;16.394;2024-03-08T11:49:45;31.13;;;18.73;;
5945;SDS011;2998;48.206;16.394;2024-03-08T11:52:16;25.33;;;17.90;;
5945;SDS011;2998;48.206;16.394;2024-03-08T11:54:48;26.80;;;18.43;;
5945;SDS011;2998;48.206;16.394;2024-03-08T11:57:20;29.83;;;19.23;;
5945;SDS011;2998;48.206;16.394;2024-03-08T12:02:11;33.73;;;23.27;;
5945;SDS011;2998;48.206;16.394;2024-03-08T12:04:43;39.80;;;23.63;;
5945;SDS011;2998;48.206;16.394;2024-03-08T12:07:12;42.67;;;23.37;;
5945;SDS011;2998;48.206;16.394;2024-03-08T12:09:40;31.20;;;20.70;;
5945;SDS011;2998;48.206;16.394;2024-03-08T12:12:12;35.13;;;21.77;;
5945;SDS011;2998;48.206;16.394;2024-03-08T12:14:43;33.10;;;21.53;;
5945;SDS011;2998;48.206;16.394;2024-03-08T12:17:13;34.37;;;20.83;;
5945;SDS011;2998;48.206;16.394;2024-03-08T12:19:45;32.70;;;22.37;;
5945;SDS011;2998;48.206;16.394;2024-03-08T12:22:15;35.47;;;23.27;;
5945;SDS011;2998;48.206;16.394;2024-03-08T12:24:44;31.43;;;19.67;;
5945;SDS011;2998;48.206;16.394;2024-03-08T12:27:19;32.93;;;20.63;;
5945;SDS011;2998;48.206;16.394;2024-03-08T12:29:48;40.97;;;21.53;;
5945;SDS011;2998;48.206;16.394;2024-03-08T12:32:19;32.83;;;20.50;;
5945;SDS011;2998;48.206;16.394;2024-03-08T12:34:51;29.07;;;19.83;;
5945;SDS011;2998;48.206;16.394;2024-03-08T12:37:21;28.23;;;18.53;;
5945;SDS011;2998;48.206;16.394;2024-03-08T12:39:50;31.30;;;20.43;;
5945;SDS011;2998;48.206;16.394;2024-03-08T12:42:20;36.63;;;19.97;;
5945;SDS011;2998;48.206;16.394;2024-03-08T12:44:49;31.73;;;19.47;;
5945;SDS011;2998;48.206;16.394;2024-03-08T12:47:18;26.20;;;17.10;;
5945;SDS011;2998;48.206;16.394;2024-03-08T12:49:47;26.37;;;17.07;;
5945;SDS011;2998;48.206;16.394;2024-03-08T12:52:19;28.20;;;17.10;;
5945;SDS011;2998;48.206;16.394;2024-03-08T12:54:47;29.30;;;16.67;;
5945;SDS011;2998;48.206;16.394;2024-03-08T12:57:16;26.00;;;17.90;;
5945;SDS011;2998;48.206;16.394;2024-03-08T12:59:44;24.97;;;16.70;;
5945;SDS011;2998;48.206;16.394;2024-03-08T13:02:17;26.60;;;18.13;;
5945;SDS011;2998;48.206;16.394;2024-03-08T13:04:50;29.60;;;17.50;;
5945;SDS011;2998;48.206;16.394;2024-03-08T13:07:25;21.07;;;15.60;;
5945;SDS011;2998;48.206;16.394;2024-03-08T13:09:54;26.57;;;16.10;;
5945;SDS011;2998;48.206;16.394;2024-03-08T13:12:26;27.30;;;17.07;;
5945;SDS011;2998;48.206;16.394;2024-03-08T13:14:55;29.43;;;18.07;;
5945;SDS011;2998;48.206;16.394;2024-03-08T13:17:25;29.13;;;18.80;;
5945;SDS011;2998;48.206;16.394;2024-03-08T13:19:54;24.77;;;16.90;;
5945;SDS011;2998;48.206;16.394;2024-03-08T13:22:24;27.40;;;17.17;;
5945;SDS011;2998;48.206;16.394;2024-03-08T13:24:52;26.27;;;18.40;;
5945;SDS011;2998;48.206;16.394;2024-03-08T13:27:20;31.87;;;21.97;;
5945;SDS011;2998;48.206;16.394;2024-03-08T13:29:48;29.77;;;19.37;;
5945;SDS011;2998;48.206;16.394;2024-03-08T13:32:17;31.37;;;18.53;;
5945;SDS011;2998;48.206;16.394;2024-03-08T13:34:48;32.50;;;18.30;;
5945;SDS011;2998;48.206;16.394;2024-03-08T13:37:18;25.97;;;16.60;;
5945;SDS011;2998;48.206;16.394;2024-03-08T13:39:46;28.20;;;17.47;;
5945;SDS011;2998;48.206;16.394;2024-03-08T13:42:14;28.57;;;17.27;;
5945;SDS011;2998;48.206;16.394;2024-03-08T13:44:45;26.23;;;17.93;;
5945;SDS011;2998;48.206;16.394;2024-03-08T13:47:13;30.00;;;18.43;;
5945;SDS011;2998;48.206;16.394;2024-03-08T13:49:42;25.80;;;17.90;;
5945;SDS011;2998;48.206;16.394;2024-03-08T13:52:11;27.00;;;17.07;;
5945;SDS011;2998;48.206;16.394;2024-03-08T13:54:42;28.73;;;17.80;;
5945;SDS011;2998;48.206;16.394;2024-03-08T13:57:10;28.63;;;17.47;;
5945;SDS011;2998;48.206;16.394;2024-03-08T13:59:38;28.57;;;18.43;;
5945;SDS011;2998;48.206;16.394;2024-03-08T14:02:06;30.90;;;18.80;;
5945;SDS011;2998;48.206;16.394;2024-03-08T14:04:40;27.83;;;17.87;;
5945;SDS011;2998;48.206;16.394;2024-03-08T14:07:09;28.60;;;17.67;;
5945;SDS011;2998;48.206;16.394;2024-03-08T14:09:39;24.80;;;17.07;;
5945;SDS011;2998;48.206;16.394;2024-03-08T14:12:09;25.87;;;17.07;;
5945;SDS011;2998;48.206;16.394;2024-03-08T14:14:37;25.40;;;16.87;;
5945;SDS011;2998;48.206;16.394;2024-03-08T14:17:05;26.50;;;17.20;;
5945;SDS011;2998;48.206;16.394;2024-03-08T14:19:33;26.73;;;17.33;;
5945;SDS011;2998;48.206;16.394;2024-03-08T14:22:02;27.63;;;18.20;;
5945;SDS011;2998;48.206;16.394;2024-03-08T14:24:30;26.83;;;16.63;;
5945;SDS011;2998;48.206;16.394;2024-03-08T14:27:03;27.53;;;18.60;;
5945;SDS011;2998;48.206;16.394;2024-03-08T14:29:31;26.13;;;16.77;;
5945;SDS011;2998;48.206;16.394;2024-03-08T14:31:59;24.53;;;15.80;;
5945;SDS011;2998;48.206;16.394;2024-03-08T14:34:29;25.60;;;16.17;;
5945;SDS011;2998;48.206;16.394;2024-03-08T14:36:57;26.73;;;17.57;;
5945;SDS011;2998;48.206;16.394;2024-03-08T14:39:27;25.27;;;17.07;;
5945;SDS011;2998;48.206;16.394;2024-03-08T14:41:55;23.40;;;15.83;;
5945;SDS011;2998;48.206;16.394;2024-03-08T14:44:25;25.10;;;16.90;;
5945;SDS011;2998;48.206;16.394;2024-03-08T14:46:55;23.90;;;14.97;;
5945;SDS011;2998;48.206;16.394;2024-03-08T14:49:24;25.23;;;15.47;;
5945;SDS011;2998;48.206;16.394;2024-03-08T14:51:55;26.33;;;15.73;;
5945;SDS011;2998;48.206;16.394;2024-03-08T14:54:25;23.30;;;15.40;;
5945;SDS011;2998;48.206;16.394;2024-03-08T14:56:53;22.23;;;16.23;;